San Luis, CO

7:29 AM MDT on September 16, 2014 (GMT -0600)
La Veta Pass | Change Station
CLOSE
Current Station
Airport
Location: La Veta Pass,
Elevation: 10217 ft
Nearby Weather Stations

Elev 10217 ft 37.50 °N, 105.17 °W | Updated 9 days ago

Partly Cloudy
Partly Cloudy
48 °F
Feels Like 48 °F
N
1
Wind Variable Wind from SSW
Gusts 4 mph

Today
High -- | Low -- °F
--% Chance of Precip.
Yesterday
High -- | Low -- °F
Precip. -- in
6:45 AM 7:08 PM
Last Quarter, 45% visible
Pressure 30.60 in
Visibility 10.0 miles
Clouds Clear
Dew Point 44 °F
Humidity 81%
Rainfall 0.03 in
Snow Depth 0 in , 0 in , 0 in
UV 7 out of 12
Pollen 5.00 out of 12
Air Quality Not available.
Flu Activity Not available.
METAR KVTP 061633Z AUTO 00000KT 10SM CLR 12/08 A3060 RMK AO2

More Conditions Fewer Conditions

Pressure 30.60 in
Visibility 10.0 miles
Clouds Clear
Dew Point 44 °F
Humidity 81%
Rainfall 0.03 in
Snow Depth 0 in , 0 in , 0 in
UV 7 out of 12
Pollen 5.00 out of 12
Air Quality Not available.
Flu Activity Not available.
METAR KVTP 061633Z AUTO 00000KT 10SM CLR 12/08 A3060 RMK AO2

More Conditions Fewer Conditions

10-Day Weather Forecast

Almanac

Astronomy

Sep. 16, 2014 Rise Set
Actual Time 6:45 AM MDT 7:08 PM MDT
Civil Twilight 6:19 AM MDT 7:34 PM MDT
Nautical Twilight 5:48 AM MDT 8:05 PM MDT
Astronomical Twilight 5:17 AM MDT 8:36 PM MDT
Moon 12:03 AM MDT 2:28 PM MDT
Length of Visible Light 13h 15m
Length of Day
12h 23m
Tomorrow will be 2m 21s shorter.
Last Quarter, 45% of the Moon is Illuminated
Today
Last Quarter
Sep 24
New
Oct 1
First Quarter
Oct 8
Full
Oct 15
Last Quarter

Today's Extremes

State Highs State Lows

Community

WunderPhotos

Upload Photos

1,753,759 photos uploaded!

Nearby

Snow Depth

Station Depth Elevation
Cascade #2 0 in 8920 ft
Whiskey Creek 0 in 10220 ft
Mineral Creek 0 in 10040 ft
Bear RIver 0 in 9080 ft
Beaver Divide 0 in 8280 ft

Earthquake Activity

City Distance Mag. Time & Date
No recent earthquake activity has been reported nearby.
Minimum magnitude displayed is 2.5.

Coastal Water Temperatures

Place Temperature
No Stations Reporting

Nearby Weather Stations